createdAt,value
2022-08-03T00:00:41.847Z,21.28
2022-08-03T00:01:40.836Z,21.27
2022-08-03T00:02:40.868Z,21.27
2022-08-03T00:03:40.837Z,21.27
2022-08-03T00:04:40.817Z,21.28
2022-08-03T00:05:40.780Z,21.27
2022-08-03T00:06:41.797Z,21.24
2022-08-03T00:07:40.747Z,21.24
2022-08-03T00:08:40.766Z,21.22
2022-08-03T00:09:40.725Z,21.18
2022-08-03T00:10:40.726Z,21.18
2022-08-03T00:11:40.713Z,21.16
2022-08-03T00:12:40.725Z,21.16
2022-08-03T00:13:40.683Z,21.16
2022-08-03T00:14:40.672Z,21.15
2022-08-03T00:15:40.717Z,21.11
2022-08-03T00:16:40.676Z,21.11
2022-08-03T00:17:53.570Z,21.11
2022-08-03T00:18:41.676Z,21.08
2022-08-03T00:19:40.605Z,21.05
2022-08-03T00:20:40.595Z,21.05
2022-08-03T00:21:40.576Z,21.03
2022-08-03T00:22:40.578Z,21.00
2022-08-03T00:23:51.238Z,21.00
2022-08-03T00:24:41.598Z,20.97
2022-08-03T00:25:40.532Z,20.97
2022-08-03T00:26:40.528Z,20.93
2022-08-03T00:27:40.503Z,20.93
2022-08-03T00:28:40.508Z,20.94
2022-08-03T00:29:59.509Z,20.94
2022-08-03T00:30:41.468Z,20.93
2022-08-03T00:31:59.181Z,20.93
2022-08-03T00:32:44.251Z,20.91
2022-08-03T00:33:58.888Z,20.91
2022-08-03T00:34:57.138Z,20.93
2022-08-03T00:35:50.631Z,20.91
2022-08-03T00:36:41.431Z,20.91
2022-08-03T00:37:41.549Z,20.90
2022-08-03T00:38:40.365Z,20.88
2022-08-03T00:39:40.343Z,20.88
2022-08-03T00:40:40.346Z,20.88
2022-08-03T00:41:40.317Z,20.90
2022-08-03T00:42:40.324Z,20.90
2022-08-03T00:43:40.307Z,20.91
2022-08-03T00:44:40.295Z,20.88
2022-08-03T00:45:40.314Z,20.88
2022-08-03T00:46:40.256Z,20.91
2022-08-03T00:47:40.246Z,20.88
2022-08-03T00:48:40.237Z,20.87
2022-08-03T00:49:41.119Z,20.88
2022-08-03T00:50:40.218Z,20.88
2022-08-03T00:51:40.197Z,20.91
2022-08-03T00:52:40.203Z,20.93
2022-08-03T00:53:40.167Z,20.93
2022-08-03T00:54:40.181Z,20.91
2022-08-03T00:55:40.141Z,20.91
2022-08-03T00:56:40.156Z,20.93
2022-08-03T00:57:41.125Z,20.93
2022-08-03T00:58:40.124Z,20.94
2022-08-03T00:59:40.116Z,20.94
2022-08-03T01:00:40.086Z,20.94
2022-08-03T01:01:40.126Z,20.94
2022-08-03T01:02:40.103Z,20.94
2022-08-03T01:03:40.175Z,20.93
2022-08-03T01:04:40.030Z,20.96
2022-08-03T01:05:40.022Z,20.94
2022-08-03T01:06:40.024Z,20.94
2022-08-03T01:07:40.082Z,20.93
2022-08-03T01:08:39.985Z,20.93
2022-08-03T01:09:40.022Z,20.93
2022-08-03T01:10:39.956Z,20.94
2022-08-03T01:11:59.844Z,20.91
2022-08-03T01:12:40.944Z,20.93
2022-08-03T01:14:01.661Z,20.93
2022-08-03T01:14:40.904Z,20.91
2022-08-03T01:15:39.891Z,20.90
2022-08-03T01:16:39.883Z,20.91
2022-08-03T01:17:39.884Z,20.88
2022-08-03T01:18:39.862Z,20.87
2022-08-03T01:19:39.873Z,20.87
2022-08-03T01:20:39.833Z,20.83
2022-08-03T01:21:39.823Z,20.83
2022-08-03T01:22:39.824Z,20.83
2022-08-03T01:23:39.792Z,20.83
2022-08-03T01:24:40.944Z,20.83
2022-08-03T01:25:39.761Z,20.83
2022-08-03T01:26:39.762Z,20.83
2022-08-03T01:27:39.742Z,20.85
2022-08-03T01:28:39.752Z,20.85
2022-08-03T01:29:39.751Z,20.85
2022-08-03T01:30:40.424Z,20.85
2022-08-03T01:32:59.812Z,20.85
2022-08-03T01:33:03.041Z,20.85
2022-08-03T01:33:40.699Z,20.83
2022-08-03T01:34:39.657Z,20.83
2022-08-03T01:35:39.680Z,20.87
2022-08-03T01:36:39.631Z,20.88
2022-08-03T01:37:39.653Z,20.90
2022-08-03T01:38:39.621Z,20.90
2022-08-03T01:39:39.589Z,20.93
2022-08-03T01:40:39.594Z,20.91
2022-08-03T01:41:39.602Z,20.90
2022-08-03T01:42:39.562Z,20.90
2022-08-03T01:44:27.043Z,20.91
2022-08-03T01:44:40.540Z,20.93
2022-08-03T01:45:39.515Z,20.90
2022-08-03T01:46:39.499Z,20.91
2022-08-03T01:47:39.490Z,20.90
2022-08-03T01:48:39.483Z,20.90
2022-08-03T01:49:39.517Z,20.90
2022-08-03T01:50:39.451Z,20.88
2022-08-03T01:52:03.498Z,20.91
2022-08-03T01:52:40.440Z,20.93
2022-08-03T01:53:39.419Z,20.93
2022-08-03T01:54:39.423Z,20.91
2022-08-03T01:55:39.445Z,20.91
2022-08-03T01:56:39.383Z,20.91
2022-08-03T01:58:05.179Z,20.93
2022-08-03T01:58:40.361Z,20.93
2022-08-03T01:59:39.342Z,20.94
2022-08-03T02:00:39.401Z,20.96
2022-08-03T02:02:31.937Z,20.96
2022-08-03T02:02:40.775Z,20.96
2022-08-03T02:04:00.085Z,20.97
2022-08-03T02:04:40.292Z,20.97
2022-08-03T02:05:39.281Z,20.97
2022-08-03T02:07:02.907Z,20.97
2022-08-03T02:07:40.413Z,20.97
2022-08-03T02:08:39.230Z,20.96
2022-08-03T02:09:39.208Z,20.98
2022-08-03T02:10:39.208Z,21.00
2022-08-03T02:11:39.408Z,21.01
2022-08-03T02:12:39.199Z,21.01
2022-08-03T02:13:39.221Z,21.01
2022-08-03T02:14:39.168Z,20.98
2022-08-03T02:15:39.148Z,21.01
2022-08-03T02:16:39.130Z,21.01
2022-08-03T02:17:40.343Z,21.01
2022-08-03T02:18:39.113Z,21.03
2022-08-03T02:19:39.081Z,21.01
2022-08-03T02:20:39.094Z,21.03
2022-08-03T02:21:56.285Z,21.03
2022-08-03T02:22:40.099Z,21.03
2022-08-03T02:23:39.348Z,21.01
2022-08-03T02:24:39.029Z,21.01
2022-08-03T02:25:39.010Z,21.01
2022-08-03T02:26:39.000Z,21.01
2022-08-03T02:27:43.339Z,21.00
2022-08-03T02:28:39.009Z,20.98
2022-08-03T02:29:41.013Z,20.98
2022-08-03T02:30:38.957Z,20.97
2022-08-03T02:31:38.931Z,20.97
2022-08-03T02:32:38.940Z,20.98
2022-08-03T02:33:38.936Z,21.00
2022-08-03T02:34:38.899Z,21.00
2022-08-03T02:35:38.986Z,21.01
2022-08-03T02:36:38.864Z,21.01
2022-08-03T02:37:38.919Z,21.01
2022-08-03T02:38:38.855Z,21.00
2022-08-03T02:39:38.827Z,20.98
2022-08-03T02:40:38.820Z,20.97
2022-08-03T02:41:38.808Z,20.96
2022-08-03T02:42:38.817Z,20.97
2022-08-03T02:43:40.258Z,20.94
2022-08-03T02:44:39.769Z,20.93
2022-08-03T02:45:42.551Z,20.88
2022-08-03T02:46:39.748Z,20.90
2022-08-03T02:47:54.058Z,20.88
2022-08-03T02:48:39.724Z,20.87
2022-08-03T02:49:51.025Z,20.85
2022-08-03T02:50:39.771Z,20.83
2022-08-03T02:51:38.679Z,20.81
2022-08-03T02:52:38.675Z,20.81
2022-08-03T02:53:38.678Z,20.79
2022-08-03T02:54:38.646Z,20.81
2022-08-03T02:55:43.156Z,20.82
2022-08-03T02:56:39.634Z,20.82
2022-08-03T02:57:38.606Z,20.83
2022-08-03T02:58:38.596Z,20.81
2022-08-03T02:59:38.641Z,20.78
2022-08-03T03:00:38.613Z,20.78
2022-08-03T03:01:38.556Z,20.75
2022-08-03T03:02:38.548Z,20.73
2022-08-03T03:03:44.744Z,20.71
2022-08-03T03:04:43.168Z,20.69
2022-08-03T03:05:53.329Z,20.68
2022-08-03T03:06:39.517Z,20.68
2022-08-03T03:07:51.835Z,20.68
2022-08-03T03:08:39.475Z,20.66
2022-08-03T03:09:41.828Z,20.64
2022-08-03T03:10:38.532Z,20.64
2022-08-03T03:11:38.441Z,20.60
2022-08-03T03:12:38.438Z,20.58
2022-08-03T03:13:38.417Z,20.58
2022-08-03T03:14:38.415Z,20.58
2022-08-03T03:15:38.392Z,20.57
2022-08-03T03:16:38.436Z,20.56
2022-08-03T03:17:38.359Z,20.56
2022-08-03T03:18:38.346Z,20.56
2022-08-03T03:19:38.333Z,20.57
2022-08-03T03:20:38.362Z,20.57
2022-08-03T03:21:38.305Z,20.57
2022-08-03T03:22:38.294Z,20.58
2022-08-03T03:23:38.333Z,20.58
2022-08-03T03:24:38.256Z,20.61
2022-08-03T03:25:38.280Z,20.58
2022-08-03T03:26:42.280Z,20.61
2022-08-03T03:27:38.226Z,20.63
2022-08-03T03:28:38.262Z,20.60
2022-08-03T03:29:39.479Z,20.60
2022-08-03T03:30:38.198Z,20.60
2022-08-03T03:31:38.175Z,20.60
2022-08-03T03:32:38.299Z,20.58
2022-08-03T03:33:38.209Z,20.60
2022-08-03T03:34:38.155Z,20.58
2022-08-03T03:35:39.018Z,20.58
2022-08-03T03:36:38.112Z,20.57
2022-08-03T03:37:38.092Z,20.54
2022-08-03T03:38:38.145Z,20.54
2022-08-03T03:39:38.073Z,20.54
2022-08-03T03:40:38.046Z,20.57
2022-08-03T03:41:38.044Z,20.60
2022-08-03T03:42:38.025Z,20.61
2022-08-03T03:43:38.034Z,20.60
2022-08-03T03:44:38.013Z,20.61
2022-08-03T03:45:38.002Z,20.60
2022-08-03T03:46:37.989Z,20.60
2022-08-03T03:47:37.980Z,20.58
2022-08-03T03:48:37.981Z,20.57
2022-08-03T03:49:38.031Z,20.54
2022-08-03T03:50:37.925Z,20.53
2022-08-03T03:51:37.919Z,20.53
2022-08-03T03:52:37.904Z,20.53
2022-08-03T03:53:37.899Z,20.54
2022-08-03T03:54:38.064Z,20.54
2022-08-03T03:55:37.852Z,20.54
2022-08-03T03:56:38.883Z,20.56
2022-08-03T03:57:37.824Z,20.56
2022-08-03T03:58:37.843Z,20.57
2022-08-03T03:59:37.811Z,20.56
2022-08-03T04:00:37.889Z,20.56
2022-08-03T04:01:37.777Z,20.56
2022-08-03T04:02:37.792Z,20.56
2022-08-03T04:03:37.770Z,20.57
2022-08-03T04:04:37.745Z,20.57
2022-08-03T04:05:37.734Z,20.58
2022-08-03T04:06:37.724Z,20.58
2022-08-03T04:07:37.713Z,20.58
2022-08-03T04:08:37.681Z,20.57
2022-08-03T04:09:37.826Z,20.56
2022-08-03T04:10:37.653Z,20.56
2022-08-03T04:11:37.647Z,20.58
2022-08-03T04:12:37.633Z,20.60
2022-08-03T04:13:38.623Z,20.63
2022-08-03T04:14:37.675Z,20.64
2022-08-03T04:15:37.592Z,20.66
2022-08-03T04:16:41.891Z,20.69
2022-08-03T04:17:38.599Z,20.73
2022-08-03T04:18:37.593Z,20.75
2022-08-03T04:19:37.800Z,20.78
2022-08-03T04:20:37.572Z,20.78
2022-08-03T04:21:37.531Z,20.79
2022-08-03T04:22:37.545Z,20.81
2022-08-03T04:23:37.541Z,20.82
2022-08-03T04:24:37.516Z,20.83
2022-08-03T04:25:37.464Z,20.83
2022-08-03T04:26:37.443Z,20.85
2022-08-03T04:27:37.441Z,20.87
2022-08-03T04:28:37.425Z,20.88
2022-08-03T04:29:38.694Z,20.85
2022-08-03T04:30:38.406Z,20.87
2022-08-03T04:31:37.414Z,20.85
2022-08-03T04:32:37.377Z,20.85
2022-08-03T04:33:37.423Z,20.87
2022-08-03T04:34:37.343Z,20.87
2022-08-03T04:35:58.632Z,20.90
2022-08-03T04:36:38.313Z,20.93
2022-08-03T04:37:37.304Z,20.94
2022-08-03T04:38:37.278Z,20.96
2022-08-03T04:39:37.298Z,20.96
2022-08-03T04:40:37.259Z,20.94
2022-08-03T04:42:08.277Z,20.93
2022-08-03T04:42:38.242Z,20.94
2022-08-03T04:43:37.248Z,20.96
2022-08-03T04:44:37.213Z,20.97
2022-08-03T04:45:37.199Z,20.98
2022-08-03T04:46:37.177Z,21.05
2022-08-03T04:47:37.196Z,21.11
2022-08-03T04:48:37.156Z,21.15
2022-08-03T04:49:37.287Z,21.16
2022-08-03T04:50:37.131Z,21.19
2022-08-03T04:51:37.128Z,21.22
2022-08-03T04:52:37.113Z,21.22
2022-08-03T04:53:37.284Z,21.26
2022-08-03T04:54:37.081Z,21.28
2022-08-03T04:55:37.064Z,21.31
2022-08-03T04:56:37.068Z,21.33
2022-08-03T04:57:37.039Z,21.37
2022-08-03T04:58:37.040Z,21.38
2022-08-03T04:59:40.840Z,21.43
2022-08-03T05:00:37.002Z,21.45
2022-08-03T05:01:37.082Z,21.48
2022-08-03T05:02:37.002Z,21.52
2022-08-03T05:03:36.981Z,21.55
2022-08-03T05:04:36.986Z,21.59
2022-08-03T05:05:49.972Z,21.63
2022-08-03T05:06:47.864Z,21.64
2022-08-03T05:07:37.918Z,21.68
2022-08-03T05:08:36.918Z,21.71
2022-08-03T05:09:49.964Z,21.73
2022-08-03T05:10:37.883Z,21.77
2022-08-03T05:11:36.869Z,21.82
2022-08-03T05:12:36.850Z,21.82
2022-08-03T05:13:36.858Z,21.86
2022-08-03T05:14:36.820Z,21.89
2022-08-03T05:15:42.979Z,21.89
2022-08-03T05:16:37.804Z,21.93
2022-08-03T05:17:36.808Z,21.96
2022-08-03T05:20:10.272Z,22.02
2022-08-03T05:21:10.269Z,22.02
2022-08-03T05:22:10.311Z,22.04
2022-08-03T05:23:10.223Z,22.06
2022-08-03T05:24:10.213Z,22.08
2022-08-03T05:25:10.193Z,22.09
2022-08-03T05:26:11.194Z,22.11
2022-08-03T05:27:10.165Z,22.14
2022-08-03T05:28:10.170Z,22.19
2022-08-03T05:29:10.163Z,22.19
2022-08-03T05:30:30.743Z,22.23
2022-08-03T05:31:11.115Z,22.27
2022-08-03T05:32:10.168Z,22.30
2022-08-03T05:33:10.103Z,22.31
2022-08-03T05:34:10.107Z,22.35
2022-08-03T05:36:00.848Z,22.38
2022-08-03T05:36:11.063Z,22.39
2022-08-03T05:37:10.044Z,22.42
2022-08-03T05:38:10.036Z,22.45
2022-08-03T05:39:10.023Z,22.45
2022-08-03T05:40:10.023Z,22.46
2022-08-03T05:41:22.649Z,22.49
2022-08-03T05:42:10.999Z,22.51
2022-08-03T05:43:09.964Z,22.54
2022-08-03T05:44:09.983Z,22.59
2022-08-03T05:45:09.935Z,22.60
2022-08-03T05:46:12.455Z,22.64
2022-08-03T05:47:09.915Z,22.66
2022-08-03T05:48:09.912Z,22.69
2022-08-03T05:49:09.978Z,22.72
2022-08-03T05:50:09.884Z,22.74
2022-08-03T05:51:09.862Z,22.76
2022-08-03T05:52:15.748Z,22.78
2022-08-03T05:53:10.824Z,22.78
2022-08-03T05:54:09.854Z,22.81
2022-08-03T05:55:09.842Z,22.84
2022-08-03T05:56:15.349Z,22.86
2022-08-03T05:57:10.776Z,22.88
2022-08-03T05:58:09.815Z,22.91
2022-08-03T05:59:36.635Z,22.93
2022-08-03T06:00:10.747Z,22.94
2022-08-03T06:01:09.760Z,22.97
2022-08-03T06:02:09.822Z,23.00
2022-08-03T06:03:09.713Z,23.04
2022-08-03T06:04:09.693Z,23.07
2022-08-03T06:05:09.676Z,23.09
2022-08-03T06:06:09.674Z,23.12
2022-08-03T06:07:09.672Z,23.14
2022-08-03T06:08:09.665Z,23.18
2022-08-03T06:09:10.643Z,23.21
2022-08-03T06:10:36.427Z,23.22
2022-08-03T06:11:10.614Z,23.23
2022-08-03T06:12:13.921Z,23.29
2022-08-03T06:13:09.588Z,23.35
2022-08-03T06:14:09.564Z,23.38
2022-08-03T06:15:11.605Z,23.42
2022-08-03T06:16:09.549Z,23.45
2022-08-03T06:17:09.552Z,23.47
2022-08-03T06:18:09.524Z,23.52
2022-08-03T06:19:09.605Z,23.52
2022-08-03T06:20:09.534Z,23.54
2022-08-03T06:21:14.664Z,23.57
2022-08-03T06:22:10.461Z,23.63
2022-08-03T06:23:16.237Z,23.67
2022-08-03T06:24:10.442Z,23.71
2022-08-03T06:25:12.788Z,23.75
2022-08-03T06:26:09.406Z,23.75
2022-08-03T06:27:09.417Z,23.77
2022-08-03T06:28:12.129Z,23.82
2022-08-03T06:29:10.402Z,23.89
2022-08-03T06:30:09.370Z,23.94
2022-08-03T06:31:09.343Z,24.00
2022-08-03T06:32:09.350Z,24.02
2022-08-03T06:33:09.362Z,24.05
2022-08-03T06:34:32.989Z,24.09
2022-08-03T06:35:10.322Z,24.12
2022-08-03T06:36:09.273Z,24.15
2022-08-03T06:37:09.272Z,24.15
2022-08-03T06:38:09.249Z,24.18
2022-08-03T06:39:09.254Z,24.19
2022-08-03T06:40:09.255Z,24.21
2022-08-03T06:41:09.214Z,24.24
2022-08-03T06:42:13.550Z,24.27
2022-08-03T06:43:12.654Z,24.27
2022-08-03T06:44:09.164Z,24.27
2022-08-03T06:45:09.182Z,24.29
2022-08-03T06:46:09.155Z,24.29
2022-08-03T06:47:09.182Z,24.33
2022-08-03T06:48:09.122Z,24.34
2022-08-03T06:49:09.169Z,24.36
2022-08-03T06:50:12.864Z,24.42
2022-08-03T06:51:10.086Z,24.48
2022-08-03T06:52:09.071Z,24.52
2022-08-03T06:53:09.052Z,24.59
2022-08-03T06:54:10.048Z,24.56
2022-08-03T06:55:09.042Z,24.59
2022-08-03T06:56:09.018Z,24.64
2022-08-03T06:57:09.004Z,24.67
2022-08-03T06:58:09.002Z,24.71
2022-08-03T06:59:08.988Z,24.79
2022-08-03T07:00:12.503Z,24.87
2022-08-03T07:01:08.970Z,24.90
2022-08-03T07:02:08.953Z,24.92
2022-08-03T07:03:09.123Z,24.97
2022-08-03T07:04:08.903Z,24.97
2022-08-03T07:05:08.955Z,24.99
2022-08-03T07:06:08.893Z,25.05
2022-08-03T07:07:08.886Z,25.09
2022-08-03T07:08:08.880Z,25.12
2022-08-03T07:09:08.862Z,25.16
2022-08-03T07:10:08.878Z,25.16
2022-08-03T07:11:08.847Z,25.17
2022-08-03T07:12:08.816Z,25.19
2022-08-03T07:13:08.802Z,25.24
2022-08-03T07:14:08.808Z,25.31
2022-08-03T07:15:08.788Z,25.39
2022-08-03T07:16:09.762Z,25.46
2022-08-03T07:17:11.417Z,25.53
2022-08-03T07:18:08.740Z,25.56
2022-08-03T07:19:08.743Z,25.60
2022-08-03T07:20:08.737Z,25.60
2022-08-03T07:21:08.719Z,25.63
2022-08-03T07:22:08.675Z,25.63
2022-08-03T07:23:08.672Z,25.63
2022-08-03T07:24:08.665Z,25.66
2022-08-03T07:25:08.673Z,25.72
2022-08-03T07:26:08.652Z,25.72
2022-08-03T07:27:08.619Z,25.72
2022-08-03T07:28:08.605Z,25.74
2022-08-03T07:29:15.080Z,25.74
2022-08-03T07:30:09.599Z,25.79
2022-08-03T07:31:08.569Z,25.81
2022-08-03T07:32:08.559Z,25.86
2022-08-03T07:33:08.531Z,25.97
2022-08-03T07:34:08.538Z,26.03
2022-08-03T07:35:08.911Z,26.04
2022-08-03T07:36:09.500Z,26.06
2022-08-03T07:37:08.479Z,26.12
2022-08-03T07:38:08.474Z,26.12
2022-08-03T07:39:15.791Z,26.16
2022-08-03T07:40:09.498Z,26.16
2022-08-03T07:41:08.473Z,26.27
2022-08-03T07:42:08.410Z,26.32
2022-08-03T07:43:08.411Z,26.34
2022-08-03T07:44:08.392Z,26.36
2022-08-03T07:45:08.439Z,26.44
2022-08-03T07:46:09.374Z,26.47
2022-08-03T07:47:08.357Z,26.51
2022-08-03T07:48:12.196Z,26.56
2022-08-03T07:49:08.439Z,26.60
2022-08-03T07:50:08.887Z,26.64
2022-08-03T07:51:08.322Z,26.61
2022-08-03T07:52:08.283Z,26.66
2022-08-03T07:53:08.280Z,26.71
2022-08-03T07:54:08.269Z,26.73
2022-08-03T07:55:08.252Z,26.73
2022-08-03T07:56:11.458Z,26.75
2022-08-03T07:57:08.220Z,26.75
2022-08-03T07:58:08.215Z,26.75
2022-08-03T07:59:08.209Z,26.76
2022-08-03T08:00:08.185Z,26.79
2022-08-03T08:01:08.280Z,26.79
2022-08-03T08:02:08.150Z,26.81
2022-08-03T08:03:08.148Z,26.87
2022-08-03T08:04:08.131Z,26.81
2022-08-03T08:05:08.125Z,26.81
2022-08-03T08:06:08.131Z,26.86
2022-08-03T08:07:08.089Z,26.90
2022-08-03T08:08:08.180Z,26.98
2022-08-03T08:09:08.071Z,27.15
2022-08-03T08:10:08.123Z,27.31
2022-08-03T08:11:08.130Z,27.40
2022-08-03T08:12:15.363Z,27.46
2022-08-03T08:13:09.036Z,27.48
2022-08-03T08:14:08.008Z,27.52
2022-08-03T08:15:07.991Z,27.52
2022-08-03T08:16:07.982Z,27.52
2022-08-03T08:17:07.970Z,27.59
2022-08-03T08:18:07.954Z,27.63
2022-08-03T08:19:07.942Z,27.65
2022-08-03T08:20:07.925Z,27.68
2022-08-03T08:21:08.692Z,27.69
2022-08-03T08:22:07.943Z,27.76
2022-08-03T08:23:19.922Z,27.76
2022-08-03T08:24:13.380Z,27.72
2022-08-03T08:25:08.871Z,27.78
2022-08-03T08:26:07.873Z,27.86
2022-08-03T08:27:07.842Z,27.90
2022-08-03T08:28:22.275Z,27.95
2022-08-03T08:29:08.810Z,27.91
2022-08-03T08:30:11.485Z,27.90
2022-08-03T08:31:07.810Z,27.91
2022-08-03T08:32:07.771Z,27.93
2022-08-03T08:33:08.698Z,27.91
2022-08-03T08:34:08.761Z,27.91
2022-08-03T08:35:07.730Z,27.86
2022-08-03T08:36:10.894Z,27.90
2022-08-03T08:37:08.738Z,27.91
2022-08-03T08:38:07.690Z,28.01
2022-08-03T08:39:07.686Z,28.05
2022-08-03T08:40:07.669Z,28.11
2022-08-03T08:41:07.677Z,28.17
2022-08-03T08:42:07.641Z,28.24
2022-08-03T08:43:07.750Z,28.24
2022-08-03T08:44:07.610Z,28.25
2022-08-03T08:45:07.628Z,28.24
2022-08-03T08:46:07.591Z,28.21
2022-08-03T08:47:07.589Z,28.23
2022-08-03T08:48:08.508Z,28.28
2022-08-03T08:49:07.569Z,28.39
2022-08-03T08:50:27.360Z,28.42
2022-08-03T08:51:08.529Z,28.40
2022-08-03T08:52:25.276Z,28.40
2022-08-03T08:53:09.728Z,28.40
2022-08-03T08:54:07.481Z,28.42
2022-08-03T08:55:07.484Z,28.51
2022-08-03T08:56:07.451Z,28.58
2022-08-03T08:57:21.320Z,28.69
2022-08-03T08:58:08.470Z,28.74
2022-08-03T08:59:07.425Z,28.77
2022-08-03T09:00:07.408Z,28.83
2022-08-03T09:01:07.533Z,28.87
2022-08-03T09:02:07.401Z,28.91
2022-08-03T09:03:07.386Z,28.89
2022-08-03T09:04:07.378Z,28.87
2022-08-03T09:05:07.803Z,28.85
2022-08-03T09:06:07.330Z,28.82
2022-08-03T09:07:19.731Z,28.82
2022-08-03T09:08:08.299Z,28.79
2022-08-03T09:09:07.315Z,28.76
2022-08-03T09:10:13.076Z,28.82
2022-08-03T09:11:08.298Z,28.83
2022-08-03T09:12:36.487Z,28.85
2022-08-03T09:13:08.271Z,28.80
2022-08-03T09:14:07.231Z,28.77
2022-08-03T09:15:16.972Z,28.73
2022-08-03T09:16:08.226Z,28.72
2022-08-03T09:17:07.196Z,28.73
2022-08-03T09:18:07.209Z,28.83
2022-08-03T09:19:07.160Z,28.89
2022-08-03T09:20:07.147Z,28.97
2022-08-03T09:21:29.693Z,29.02
2022-08-03T09:22:08.174Z,29.07
2022-08-03T09:23:33.424Z,29.12
2022-08-03T09:24:16.454Z,29.14
2022-08-03T09:25:23.848Z,29.18
2022-08-03T09:26:09.143Z,29.17
2022-08-03T09:27:07.062Z,29.17
2022-08-03T09:28:07.102Z,29.14
2022-08-03T09:29:13.260Z,29.17
2022-08-03T09:30:33.348Z,29.14
2022-08-03T09:31:08.030Z,29.11
2022-08-03T09:32:07.026Z,29.07
2022-08-03T09:33:08.419Z,29.12
2022-08-03T09:34:07.002Z,29.14
2022-08-03T09:35:07.425Z,29.11
2022-08-03T09:36:06.971Z,29.08
2022-08-03T09:37:06.943Z,29.14
2022-08-03T09:38:13.630Z,29.18
2022-08-03T09:39:07.941Z,29.21
2022-08-03T09:40:06.913Z,29.26
2022-08-03T09:41:06.907Z,29.30
2022-08-03T09:42:08.309Z,29.33
2022-08-03T09:43:06.884Z,29.39
2022-08-03T09:44:06.904Z,29.44
2022-08-03T09:45:06.855Z,29.41
2022-08-03T09:46:06.840Z,29.36
2022-08-03T09:47:06.813Z,29.39
2022-08-03T09:48:06.811Z,29.39
2022-08-03T09:49:06.846Z,29.41
2022-08-03T09:50:06.792Z,29.45
2022-08-03T09:51:12.991Z,29.45
2022-08-03T09:52:32.259Z,29.47
2022-08-03T09:53:07.745Z,29.48
2022-08-03T09:54:15.106Z,29.54
2022-08-03T09:55:07.727Z,29.57
2022-08-03T09:56:36.451Z,29.55
2022-08-03T09:57:07.690Z,29.57
2022-08-03T09:58:06.686Z,29.55
2022-08-03T09:59:07.310Z,29.55
2022-08-03T10:00:08.411Z,29.55
2022-08-03T10:01:06.669Z,29.55
2022-08-03T10:02:06.638Z,29.60
2022-08-03T10:03:06.611Z,29.69
2022-08-03T10:04:06.594Z,29.70
2022-08-03T10:05:06.596Z,29.66
2022-08-03T10:06:06.588Z,29.67
2022-08-03T10:07:06.564Z,29.71
2022-08-03T10:08:06.547Z,29.81
2022-08-03T10:09:06.532Z,29.84
2022-08-03T10:10:29.878Z,29.86
2022-08-03T10:11:07.544Z,29.78
2022-08-03T10:12:06.499Z,29.71
2022-08-03T10:13:06.495Z,29.78
2022-08-03T10:14:06.488Z,29.82
2022-08-03T10:15:06.477Z,29.88
2022-08-03T10:16:21.275Z,29.95
2022-08-03T10:17:07.432Z,29.99
2022-08-03T10:18:06.442Z,29.95
2022-08-03T10:19:06.408Z,29.91
2022-08-03T10:20:06.408Z,29.94
2022-08-03T10:21:06.393Z,29.95
2022-08-03T10:22:06.379Z,30.00
2022-08-03T10:23:06.362Z,30.03
2022-08-03T10:24:06.336Z,30.11
2022-08-03T10:25:06.333Z,30.16
2022-08-03T10:26:06.331Z,30.18
2022-08-03T10:27:06.338Z,30.11
2022-08-03T10:28:06.304Z,30.04
2022-08-03T10:29:06.280Z,30.04
2022-08-03T10:30:07.300Z,30.07
2022-08-03T10:31:06.303Z,30.10
2022-08-03T10:32:06.239Z,30.10
2022-08-03T10:33:12.312Z,30.16
2022-08-03T10:34:07.222Z,30.18
2022-08-03T10:35:19.086Z,30.28
2022-08-03T10:36:07.236Z,30.26
2022-08-03T10:37:06.181Z,30.16
2022-08-03T10:38:06.172Z,30.11
2022-08-03T10:39:16.030Z,30.10
2022-08-03T10:40:07.141Z,30.11
2022-08-03T10:41:06.133Z,30.11
2022-08-03T10:42:06.123Z,30.15
2022-08-03T10:43:07.103Z,30.22
2022-08-03T10:44:06.094Z,30.29
2022-08-03T10:45:06.072Z,30.34
2022-08-03T10:46:06.074Z,30.38
2022-08-03T10:47:06.064Z,30.40
2022-08-03T10:48:06.041Z,30.38
2022-08-03T10:49:06.163Z,30.38
2022-08-03T10:50:06.017Z,30.37
2022-08-03T10:51:06.015Z,30.44
2022-08-03T10:52:12.988Z,30.49
2022-08-03T10:53:06.994Z,30.53
2022-08-03T10:54:05.967Z,30.57
2022-08-03T10:55:07.525Z,30.61
2022-08-03T10:56:05.944Z,30.68
2022-08-03T10:57:14.169Z,30.66
2022-08-03T10:58:11.097Z,30.68
2022-08-03T10:59:05.895Z,30.76
2022-08-03T11:00:05.893Z,30.78
2022-08-03T11:01:05.975Z,30.76
2022-08-03T11:02:05.865Z,30.73
2022-08-03T11:03:05.883Z,30.72
2022-08-03T11:04:10.202Z,30.64
2022-08-03T11:05:06.814Z,30.60
2022-08-03T11:06:05.815Z,30.60
2022-08-03T11:07:05.806Z,30.54
2022-08-03T11:08:05.805Z,30.46
2022-08-03T11:09:05.773Z,30.44
2022-08-03T11:10:10.432Z,30.49
2022-08-03T11:11:05.754Z,30.57
2022-08-03T11:12:06.682Z,30.63
2022-08-03T11:13:05.728Z,30.68
2022-08-03T11:14:05.727Z,30.72
2022-08-03T11:15:05.764Z,30.73
2022-08-03T11:16:07.770Z,30.79
2022-08-03T11:17:05.674Z,30.86
2022-08-03T11:18:05.663Z,30.91
2022-08-03T11:19:05.645Z,30.94
2022-08-03T11:20:12.673Z,31.07
2022-08-03T11:21:05.624Z,31.16
2022-08-03T11:22:05.615Z,31.25
2022-08-03T11:23:05.595Z,31.28
2022-08-03T11:24:06.763Z,31.22
2022-08-03T11:25:05.590Z,31.18
2022-08-03T11:26:05.587Z,31.19
2022-08-03T11:27:05.986Z,31.19
2022-08-03T11:28:05.592Z,31.20
2022-08-03T11:29:05.512Z,31.25
2022-08-03T11:30:05.505Z,31.30
2022-08-03T11:31:05.485Z,31.30
2022-08-03T11:32:05.475Z,31.25
2022-08-03T11:33:05.454Z,31.23
2022-08-03T11:34:05.454Z,31.28
2022-08-03T11:35:05.435Z,31.30
2022-08-03T11:36:05.436Z,31.28
2022-08-03T11:37:05.472Z,31.22
2022-08-03T11:38:05.733Z,31.18
2022-08-03T11:39:05.433Z,31.13
2022-08-03T11:40:05.424Z,31.04
2022-08-03T11:41:05.412Z,31.07
2022-08-03T11:42:05.354Z,31.16
2022-08-03T11:43:05.339Z,31.18
2022-08-03T11:44:05.323Z,31.30
2022-08-03T11:45:06.208Z,31.25
2022-08-03T11:46:05.311Z,31.22
2022-08-03T11:47:05.290Z,31.28
2022-08-03T11:48:05.284Z,31.30
2022-08-03T11:49:09.285Z,31.32
2022-08-03T11:50:06.406Z,31.20
2022-08-03T11:51:05.237Z,31.22
2022-08-03T11:52:05.225Z,31.27
2022-08-03T11:53:05.234Z,31.30
2022-08-03T11:54:05.203Z,31.34
2022-08-03T11:55:05.303Z,31.40
2022-08-03T11:56:05.185Z,31.53
2022-08-03T11:57:06.165Z,31.56
2022-08-03T11:59:10.883Z,31.59
2022-08-03T11:59:18.662Z,31.62
2022-08-03T12:00:06.125Z,31.59
2022-08-03T12:01:05.114Z,31.64
2022-08-03T12:02:05.109Z,31.72
2022-08-03T12:03:05.180Z,31.71
2022-08-03T12:04:05.066Z,31.67
2022-08-03T12:05:05.067Z,31.62
2022-08-03T12:06:05.060Z,31.67
2022-08-03T12:07:05.047Z,31.67
2022-08-03T12:08:06.821Z,31.62
2022-08-03T12:09:05.015Z,31.56
2022-08-03T12:10:05.016Z,31.52
2022-08-03T12:11:04.977Z,31.47
2022-08-03T12:12:05.036Z,31.56
2022-08-03T12:13:04.955Z,31.62
2022-08-03T12:14:50.338Z,31.67
2022-08-03T12:15:05.934Z,31.69
2022-08-03T12:16:04.945Z,31.69
2022-08-03T12:17:04.927Z,31.62
2022-08-03T12:18:04.957Z,31.50
2022-08-03T12:19:05.876Z,31.35
2022-08-03T12:20:04.876Z,31.28
2022-08-03T12:21:04.848Z,31.30
2022-08-03T12:22:04.847Z,31.38
2022-08-03T12:23:04.850Z,31.45
2022-08-03T12:24:04.868Z,31.50
2022-08-03T12:25:04.808Z,31.50
2022-08-03T12:26:04.798Z,31.53
2022-08-03T12:27:04.782Z,31.57
2022-08-03T12:28:04.767Z,31.64
2022-08-03T12:29:05.757Z,31.71
2022-08-03T12:30:04.755Z,31.72
2022-08-03T12:31:04.737Z,31.68
2022-08-03T12:32:04.758Z,31.68
2022-08-03T12:33:04.708Z,31.74
2022-08-03T12:34:04.705Z,31.82
2022-08-03T12:35:04.700Z,31.84
2022-08-03T12:36:04.668Z,31.84
2022-08-03T12:37:04.666Z,31.84
2022-08-03T12:38:05.649Z,31.88
2022-08-03T12:39:04.633Z,31.91
2022-08-03T12:40:10.112Z,31.97
2022-08-03T12:41:05.627Z,32.02
2022-08-03T12:42:04.599Z,31.99
2022-08-03T12:43:04.591Z,32.06
2022-08-03T12:44:04.586Z,32.02
2022-08-03T12:45:04.581Z,32.02
2022-08-03T12:46:04.563Z,32.06
2022-08-03T12:47:04.536Z,32.09
2022-08-03T12:48:04.528Z,32.13
2022-08-03T12:49:04.557Z,32.17
2022-08-03T12:50:04.497Z,32.13
2022-08-03T12:51:04.489Z,32.12
2022-08-03T12:52:07.634Z,32.14
2022-08-03T12:53:04.453Z,32.16
2022-08-03T12:54:04.483Z,32.17